createdAt,value
2022-12-20T00:02:26.049Z,99470.81
2022-12-20T00:04:52.539Z,99479.78
2022-12-20T00:07:18.914Z,99470.41
2022-12-20T00:09:45.316Z,99468.84
2022-12-20T00:12:11.761Z,99461.06
2022-12-20T00:14:38.184Z,99452.59
2022-12-20T00:17:04.645Z,99454.03
2022-12-20T00:19:31.110Z,99459.81
2022-12-20T00:21:57.609Z,99458.88
2022-12-20T00:24:26.336Z,99460.19
2022-12-20T00:26:53.131Z,99462.09
2022-12-20T00:29:19.539Z,99463.94
2022-12-20T00:31:46.083Z,99456.66
2022-12-20T00:34:12.554Z,99465.09
2022-12-20T00:36:40.089Z,99446.91
2022-12-20T00:39:06.521Z,99438.78
2022-12-20T00:41:34.497Z,99436.88
2022-12-20T00:44:02.090Z,99446.16
2022-12-20T00:46:29.020Z,99448.38
2022-12-20T00:48:56.824Z,99445.22
2022-12-20T00:51:27.004Z,99449.81
2022-12-20T00:53:54.387Z,99446.31
2022-12-20T00:56:21.773Z,99444.03
2022-12-20T00:58:48.359Z,99437.72
2022-12-20T01:01:30.430Z,99430.81
2022-12-20T01:03:57.176Z,99432.38
2022-12-20T01:06:25.107Z,99439.13
2022-12-20T01:08:52.745Z,99430.63
2022-12-20T01:11:24.672Z,99424.56
2022-12-20T01:13:55.940Z,99416.72
2022-12-20T01:16:37.916Z,99410.66
2022-12-20T01:19:05.683Z,99422.16
2022-12-20T01:21:32.261Z,99429.44
2022-12-20T01:23:58.779Z,99425.19
2022-12-20T01:26:28.427Z,99435.75
2022-12-20T01:28:59.926Z,99427.38
2022-12-20T01:31:28.253Z,99429.69
2022-12-20T01:33:54.941Z,99423.63
2022-12-20T01:36:27.187Z,99434.91
2022-12-20T01:39:06.086Z,99438.66
2022-12-20T01:41:33.386Z,99426.09
2022-12-20T01:44:02.374Z,99428.25
2022-12-20T01:46:31.581Z,99425.63
2022-12-20T01:49:13.336Z,99430.22
2022-12-20T01:51:44.539Z,99427.69
2022-12-20T01:54:25.059Z,99432.63
2022-12-20T01:56:58.503Z,99435.75
2022-12-20T01:59:26.625Z,99428.47
2022-12-20T02:01:53.174Z,99426.81
2022-12-20T02:04:19.618Z,99418.66
2022-12-20T02:06:46.008Z,99401.53
2022-12-20T02:09:12.470Z,99400.41
2022-12-20T02:11:58.109Z,99394.97
2022-12-20T02:14:36.602Z,99392.25
2022-12-20T02:17:21.769Z,99401.34
2022-12-20T02:20:00.276Z,99404.19
2022-12-20T02:22:57.156Z,99403.44
2022-12-20T02:25:55.826Z,99400.66
2022-12-20T02:28:45.981Z,99410.06
2022-12-20T02:31:17.326Z,99414.72
2022-12-20T02:33:47.981Z,99411.34
2022-12-20T02:36:18.341Z,99420.28
2022-12-20T02:38:45.176Z,99405.28
2022-12-20T02:41:26.592Z,99402.41
2022-12-20T02:44:18.330Z,99385.75
2022-12-20T02:46:45.724Z,99394.97
2022-12-20T02:49:16.600Z,99386.75
2022-12-20T02:51:45.956Z,99396.69
2022-12-20T02:54:13.345Z,99392.09
2022-12-20T02:56:47.379Z,99414.25
2022-12-20T02:59:16.865Z,99417.69
2022-12-20T03:02:03.138Z,99418.31
2022-12-20T03:04:32.257Z,99418.75
2022-12-20T03:07:12.901Z,99416.81
2022-12-20T03:09:41.788Z,99418.31
2022-12-20T03:12:11.639Z,99417.44
2022-12-20T03:14:39.091Z,99410.91
2022-12-20T03:17:06.633Z,99405.97
2022-12-20T03:19:33.297Z,99404.13
2022-12-20T03:21:59.861Z,99408.38
2022-12-20T03:24:27.113Z,99409.50
2022-12-20T03:26:53.503Z,99406.19
2022-12-20T03:29:19.947Z,99392.84
2022-12-20T03:31:46.632Z,99389.97
2022-12-20T03:34:13.004Z,99385.50
2022-12-20T03:36:39.399Z,99389.34
2022-12-20T03:39:05.932Z,99369.84
2022-12-20T03:41:32.275Z,99381.13
2022-12-20T03:43:58.845Z,99391.78
2022-12-20T03:46:25.768Z,99380.16
2022-12-20T03:48:52.222Z,99383.31
2022-12-20T03:51:18.574Z,99376.75
2022-12-20T03:53:44.984Z,99362.22
2022-12-20T03:56:11.432Z,99364.38
2022-12-20T03:58:37.776Z,99365.84
2022-12-20T04:01:19.259Z,99387.91
2022-12-20T04:03:45.752Z,99390.44
2022-12-20T04:06:12.189Z,99391.75
2022-12-20T04:08:38.683Z,99384.34
2022-12-20T04:11:17.141Z,99377.09
2022-12-20T04:13:44.500Z,99364.47
2022-12-20T04:16:12.108Z,99352.34
2022-12-20T04:18:38.617Z,99353.44
2022-12-20T04:21:07.073Z,99360.69
2022-12-20T04:23:35.338Z,99353.44
2022-12-20T04:26:03.092Z,99356.34
2022-12-20T04:28:29.765Z,99361.22
2022-12-20T04:30:56.437Z,99357.94
2022-12-20T04:33:23.599Z,99368.72
2022-12-20T04:35:50.176Z,99368.00
2022-12-20T04:38:16.933Z,99354.56
2022-12-20T04:40:43.541Z,99356.97
2022-12-20T04:43:10.011Z,99357.56
2022-12-20T04:45:36.489Z,99347.16
2022-12-20T04:48:21.381Z,99343.75
2022-12-20T04:50:50.125Z,99345.94
2022-12-20T04:53:35.602Z,99346.28
2022-12-20T04:56:02.265Z,99332.00
2022-12-20T04:58:29.447Z,99329.44
2022-12-20T05:00:55.895Z,99325.19
2022-12-20T05:03:23.785Z,99316.22
2022-12-20T05:05:50.215Z,99306.41
2022-12-20T05:08:16.631Z,99325.19
2022-12-20T05:10:43.127Z,99317.66
2022-12-20T05:13:09.687Z,99310.16
2022-12-20T05:15:37.067Z,99319.25
2022-12-20T05:18:04.328Z,99319.13
2022-12-20T05:20:31.040Z,99318.91
2022-12-20T05:23:16.936Z,99314.66
2022-12-20T05:26:06.357Z,99314.16
2022-12-20T05:28:33.191Z,99310.03
2022-12-20T05:30:59.947Z,99315.47
2022-12-20T05:33:33.655Z,99324.25
2022-12-20T05:36:00.625Z,99323.59
2022-12-20T05:38:27.286Z,99312.81
2022-12-20T05:40:53.676Z,99315.00
2022-12-20T05:43:20.806Z,99300.22
2022-12-20T05:45:52.331Z,99301.34
2022-12-20T05:48:20.414Z,99300.84
2022-12-20T05:50:47.559Z,99296.97
2022-12-20T05:53:15.242Z,99299.25
2022-12-20T05:55:51.597Z,99289.78
2022-12-20T05:58:18.001Z,99301.31
2022-12-20T06:00:45.031Z,99289.53
2022-12-20T06:03:12.030Z,99291.72
2022-12-20T06:05:39.666Z,99287.59
2022-12-20T06:08:07.269Z,99301.44
2022-12-20T06:10:34.695Z,99305.47
2022-12-20T06:13:02.272Z,99309.66
2022-12-20T06:15:29.131Z,99315.66
2022-12-20T06:17:55.931Z,99311.50
2022-12-20T06:20:22.411Z,99302.16
2022-12-20T06:22:48.950Z,99295.63
2022-12-20T06:25:15.681Z,99288.59
2022-12-20T06:27:42.988Z,99279.84
2022-12-20T06:30:10.508Z,99270.78
2022-12-20T06:32:36.859Z,99261.94
2022-12-20T06:35:03.439Z,99266.50
2022-12-20T06:37:30.059Z,99267.47
2022-12-20T06:39:56.431Z,99267.75
2022-12-20T06:42:22.861Z,99259.50
2022-12-20T06:44:49.581Z,99259.97
2022-12-20T06:47:15.955Z,99263.97
2022-12-20T06:49:42.334Z,99259.88
2022-12-20T06:52:08.734Z,99261.94
2022-12-20T06:54:35.120Z,99264.31
2022-12-20T06:57:01.552Z,99266.06
2022-12-20T06:59:27.958Z,99265.91
2022-12-20T07:01:54.558Z,99265.81
2022-12-20T07:04:21.487Z,99255.84
2022-12-20T07:06:47.914Z,99250.75
2022-12-20T07:09:14.301Z,99246.41
2022-12-20T07:11:40.695Z,99246.41
2022-12-20T07:14:07.106Z,99243.88
2022-12-20T07:16:33.534Z,99237.78
2022-12-20T07:18:59.974Z,99229.44
2022-12-20T07:21:26.429Z,99228.22
2022-12-20T07:23:53.397Z,99241.41
2022-12-20T07:26:19.977Z,99248.09
2022-12-20T07:28:46.416Z,99239.13
2022-12-20T07:31:12.829Z,99237.91
2022-12-20T07:33:39.706Z,99241.19
2022-12-20T07:36:09.884Z,99234.38
2022-12-20T07:38:36.981Z,99223.34
2022-12-20T07:43:37.414Z,99230.97
2022-12-20T07:46:05.124Z,99231.19
2022-12-20T07:48:31.748Z,99216.31
2022-12-20T07:51:03.100Z,99208.31
2022-12-20T07:53:31.905Z,99204.53
2022-12-20T07:56:00.457Z,99207.06
2022-12-20T07:58:28.925Z,99209.25
2022-12-20T08:00:56.390Z,99208.19
2022-12-20T08:03:37.086Z,99209.25
2022-12-20T08:06:07.236Z,99209.00
2022-12-20T08:08:36.529Z,99212.53
2022-12-20T08:11:04.814Z,99227.56
2022-12-20T08:13:32.455Z,99223.31
2022-12-20T08:15:58.883Z,99226.63
2022-12-20T08:18:25.717Z,99222.59
2022-12-20T08:20:52.098Z,99228.22
2022-12-20T08:23:19.420Z,99236.69
2022-12-20T08:25:45.837Z,99227.63
2022-12-20T08:28:12.196Z,99233.44
2022-12-20T08:30:38.629Z,99232.06
2022-12-20T08:33:05.622Z,99218.97
2022-12-20T08:35:32.036Z,99209.53
2022-12-20T08:37:58.393Z,99208.53
2022-12-20T08:40:24.812Z,99204.22
2022-12-20T08:42:51.514Z,99216.78
2022-12-20T08:45:19.253Z,99225.03
2022-12-20T08:47:45.666Z,99211.34
2022-12-20T08:50:13.611Z,99216.53
2022-12-20T08:52:40.300Z,99213.38
2022-12-20T08:55:06.972Z,99210.69
2022-12-20T08:57:33.443Z,99213.75
2022-12-20T08:59:59.906Z,99198.81
2022-12-20T09:02:26.536Z,99209.00
2022-12-20T09:04:53.115Z,99218.94
2022-12-20T09:07:19.463Z,99208.34
2022-12-20T09:09:47.492Z,99203.63
2022-12-20T09:12:13.889Z,99192.16
2022-12-20T09:14:40.275Z,99183.41
2022-12-20T09:17:06.650Z,99193.63
2022-12-20T09:19:33.052Z,99183.28
2022-12-20T09:21:59.422Z,99180.22
2022-12-20T09:24:25.798Z,99191.88
2022-12-20T09:26:52.375Z,99191.75
2022-12-20T09:29:26.924Z,99184.25
2022-12-20T09:31:53.640Z,99198.97
2022-12-20T09:34:20.186Z,99197.13
2022-12-20T09:36:46.589Z,99193.28
2022-12-20T09:39:12.964Z,99194.72
2022-12-20T09:41:44.512Z,99205.16
2022-12-20T09:44:34.118Z,99202.19
2022-12-20T09:47:30.961Z,99205.59
2022-12-20T09:49:57.589Z,99204.03
2022-12-20T09:52:30.583Z,99204.75
2022-12-20T09:55:30.559Z,99203.09
2022-12-20T09:58:30.817Z,99208.41
2022-12-20T10:00:58.199Z,99208.53
2022-12-20T10:03:31.827Z,99207.56
2022-12-20T10:06:05.270Z,99207.06
2022-12-20T10:08:43.387Z,99202.50
2022-12-20T10:11:26.045Z,99204.41
2022-12-20T10:14:18.071Z,99212.41
2022-12-20T10:16:54.399Z,99207.81
2022-12-20T10:19:43.529Z,99203.31
2022-12-20T10:22:19.732Z,99203.81
2022-12-20T10:24:56.275Z,99194.09
2022-12-20T10:27:22.914Z,99180.97
2022-12-20T10:29:51.597Z,99190.44
2022-12-20T10:32:23.663Z,99193.13
2022-12-20T10:34:59.800Z,99188.97
2022-12-20T10:37:26.292Z,99190.97
2022-12-20T10:39:52.934Z,99178.31
2022-12-20T10:42:34.282Z,99166.41
2022-12-20T10:45:00.844Z,99164.53
2022-12-20T10:47:42.179Z,99167.59
2022-12-20T10:50:21.016Z,99165.63
2022-12-20T10:53:19.256Z,99170.56
2022-12-20T10:55:45.777Z,99158.13
2022-12-20T10:58:31.919Z,99151.13
2022-12-20T11:01:12.847Z,99153.19
2022-12-20T11:04:18.025Z,99157.16
2022-12-20T11:06:45.637Z,99148.81
2022-12-20T11:09:35.081Z,99131.72
2022-12-20T11:12:16.435Z,99126.38
2022-12-20T11:14:45.411Z,99131.03
2022-12-20T11:17:14.818Z,99116.44
2022-12-20T11:20:12.500Z,99115.91
2022-12-20T11:23:17.327Z,99103.19
2022-12-20T11:26:02.077Z,99102.69
2022-12-20T11:28:34.280Z,99087.50
2022-12-20T11:31:54.522Z,99090.91
2022-12-20T11:35:08.935Z,99087.22
2022-12-20T11:37:56.042Z,99078.09
2022-12-20T11:40:36.935Z,99084.03
2022-12-20T11:43:30.696Z,99085.63
2022-12-20T11:46:30.783Z,99079.88
2022-12-20T11:49:20.821Z,99084.72
2022-12-20T11:51:50.906Z,99072.03
2022-12-20T11:54:29.256Z,99068.81
2022-12-20T11:57:03.611Z,99072.34
2022-12-20T11:59:42.669Z,99057.56
2022-12-20T12:02:43.967Z,99066.28
2022-12-20T12:05:39.870Z,99051.66
2022-12-20T12:08:18.196Z,99049.13
2022-12-20T12:10:56.298Z,99055.03
2022-12-20T12:13:30.118Z,99052.22
2022-12-20T12:16:27.790Z,99044.75
2022-12-20T12:18:54.605Z,99043.34
2022-12-20T12:21:23.299Z,99037.03
2022-12-20T12:24:27.551Z,99041.78
2022-12-20T12:26:54.173Z,99046.44
2022-12-20T12:29:22.112Z,99032.78
2022-12-20T12:31:49.021Z,99034.03
2022-12-20T12:34:50.172Z,99025.44
2022-12-20T12:37:41.267Z,99016.28
2022-12-20T12:40:07.692Z,99017.09
2022-12-20T12:42:55.677Z,99015.81
2022-12-20T12:45:37.556Z,99013.41
2022-12-20T12:48:24.332Z,99012.44
2022-12-20T12:50:55.297Z,98999.59
2022-12-20T12:53:38.026Z,98991.00
2022-12-20T12:56:43.073Z,98991.69
2022-12-20T12:59:22.885Z,98998.22
2022-12-20T13:02:16.192Z,98995.50
2022-12-20T13:05:01.673Z,99004.13
2022-12-20T13:07:35.110Z,98999.03
2022-12-20T13:10:25.588Z,99002.25
2022-12-20T13:12:52.419Z,98998.34
2022-12-20T13:15:21.611Z,99008.63
2022-12-20T13:17:57.088Z,99012.84
2022-12-20T13:20:32.047Z,99005.06
2022-12-20T13:23:11.427Z,99016.94
2022-12-20T13:25:43.787Z,99020.19
2022-12-20T13:28:19.501Z,99023.69
2022-12-20T13:30:48.132Z,99019.16
2022-12-20T13:33:38.554Z,99014.13
2022-12-20T13:36:10.987Z,99013.13
2022-12-20T13:38:53.911Z,99011.59
2022-12-20T13:41:45.552Z,99014.00
2022-12-20T13:44:15.105Z,99023.19
2022-12-20T13:47:03.459Z,99011.50
2022-12-20T13:49:36.319Z,99011.38
2022-12-20T13:52:11.667Z,99006.84
2022-12-20T13:54:44.456Z,99011.09
2022-12-20T13:57:30.844Z,99009.38
2022-12-20T14:00:06.416Z,99000.66
2022-12-20T14:02:40.205Z,99008.28
2022-12-20T14:05:17.131Z,99014.88
2022-12-20T14:07:46.688Z,99011.94
2022-12-20T14:10:18.772Z,99012.06
2022-12-20T14:12:46.403Z,99007.13
2022-12-20T14:15:34.155Z,99009.81
2022-12-20T14:18:27.620Z,99007.81
2022-12-20T14:20:59.203Z,99002.31
2022-12-20T14:23:40.503Z,98993.47
2022-12-20T14:26:12.926Z,99002.06
2022-12-20T14:28:44.530Z,98985.97
2022-12-20T14:31:34.799Z,98979.53
2022-12-20T14:34:16.580Z,98973.47
2022-12-20T14:36:48.534Z,98977.41
2022-12-20T14:39:22.713Z,98982.34
2022-12-20T14:41:56.540Z,98984.00
2022-12-20T14:44:24.046Z,98959.75
2022-12-20T14:47:10.075Z,98968.63
2022-12-20T14:49:38.508Z,98977.53
2022-12-20T14:52:20.316Z,98978.91
2022-12-20T14:55:11.150Z,98982.41
2022-12-20T14:57:40.051Z,98980.00
2022-12-20T15:00:23.244Z,98970.72
2022-12-20T15:02:56.013Z,98961.13
2022-12-20T15:05:34.929Z,98960.28
2022-12-20T15:11:37.811Z,98950.97
2022-12-20T15:14:43.454Z,98950.13
2022-12-20T15:17:17.466Z,98950.44
2022-12-20T15:20:21.941Z,98967.66
2022-12-20T15:23:03.344Z,98954.41
2022-12-20T15:25:56.995Z,98950.75
2022-12-20T15:28:33.132Z,98956.38
2022-12-20T15:31:11.842Z,98954.00
2022-12-20T15:36:46.055Z,98948.22
2022-12-20T15:39:14.182Z,98951.59
2022-12-20T15:42:06.483Z,98947.34
2022-12-20T15:44:58.254Z,98942.31
2022-12-20T15:47:25.571Z,98942.59
2022-12-20T15:50:10.758Z,98950.63
2022-12-20T15:52:43.780Z,98945.81
2022-12-20T15:55:17.946Z,98959.50
2022-12-20T15:57:49.448Z,98968.81
2022-12-20T16:00:34.345Z,98959.53
2022-12-20T16:03:08.566Z,98964.34
2022-12-20T16:06:03.957Z,98968.53
2022-12-20T16:08:33.585Z,98967.97
2022-12-20T16:13:55.070Z,98957.69
2022-12-20T16:16:27.143Z,98944.03
2022-12-20T16:18:53.837Z,98940.50
2022-12-20T16:21:25.742Z,98943.47
2022-12-20T16:23:53.376Z,98940.06
2022-12-20T16:26:22.907Z,98945.19
2022-12-20T16:28:51.290Z,98943.47
2022-12-20T16:31:39.544Z,98948.00
2022-12-20T16:34:12.291Z,98943.75
2022-12-20T16:36:38.671Z,98952.78
2022-12-20T16:39:05.171Z,98939.69
2022-12-20T16:41:33.778Z,98950.13
2022-12-20T16:44:01.998Z,98942.66
2022-12-20T16:46:30.217Z,98943.94
2022-12-20T16:48:58.157Z,98932.22
2022-12-20T16:51:25.971Z,98940.25
2022-12-20T16:56:44.287Z,98923.50
2022-12-20T16:59:20.754Z,98937.16
2022-12-20T17:01:51.064Z,98930.56
2022-12-20T17:04:18.952Z,98916.44
2022-12-20T17:06:46.617Z,98914.31
2022-12-20T17:09:13.432Z,98922.63
2022-12-20T17:11:39.820Z,98924.59
2022-12-20T17:14:12.356Z,98923.44
2022-12-20T17:16:39.873Z,98930.50
2022-12-20T17:19:06.485Z,98931.63
2022-12-20T17:24:28.643Z,98925.72
2022-12-20T17:26:55.324Z,98914.31
2022-12-20T17:29:22.054Z,98918.56
2022-12-20T17:31:49.862Z,98919.25
2022-12-20T17:34:28.300Z,98917.00
2022-12-20T17:37:16.559Z,98924.06
2022-12-20T17:39:43.084Z,98915.28
2022-12-20T17:42:12.877Z,98921.09
2022-12-20T17:44:39.328Z,98913.78
2022-12-20T17:47:06.408Z,98916.16
2022-12-20T17:49:33.022Z,98917.72
2022-12-20T17:51:59.377Z,98919.00
2022-12-20T17:54:28.081Z,98915.63
2022-12-20T17:56:57.366Z,98913.34
2022-12-20T17:59:25.689Z,98909.44
2022-12-20T18:01:52.357Z,98905.31
2022-12-20T18:04:19.127Z,98904.03
2022-12-20T18:06:48.890Z,98904.59
2022-12-20T18:09:20.919Z,98899.78
2022-12-20T18:11:48.285Z,98896.41
2022-12-20T18:14:15.429Z,98896.69
2022-12-20T18:16:42.191Z,98893.03
2022-12-20T18:19:15.671Z,98898.41
2022-12-20T18:21:42.307Z,98889.59
2022-12-20T18:24:13.642Z,98892.03
2022-12-20T18:26:40.763Z,98883.84
2022-12-20T18:29:07.391Z,98891.31
2022-12-20T18:31:34.827Z,98887.94
2022-12-20T18:34:02.150Z,98896.06
2022-12-20T18:36:32.247Z,98892.69
2022-12-20T18:39:00.120Z,98886.75
2022-12-20T18:41:29.793Z,98885.91
2022-12-20T18:44:05.471Z,98878.03
2022-12-20T18:46:38.948Z,98878.66
2022-12-20T18:49:05.722Z,98874.72
2022-12-20T18:51:38.590Z,98867.28
2022-12-20T18:54:07.486Z,98872.88
2022-12-20T18:56:36.784Z,98862.97
2022-12-20T18:59:10.689Z,98865.66
2022-12-20T19:01:38.638Z,98861.66
2022-12-20T19:04:08.262Z,98857.50
2022-12-20T19:06:35.844Z,98853.97
2022-12-20T19:09:05.184Z,98847.63
2022-12-20T19:11:31.809Z,98858.59
2022-12-20T19:13:58.264Z,98856.91
2022-12-20T19:16:28.802Z,98853.25
2022-12-20T19:18:55.203Z,98867.22
2022-12-20T19:21:24.641Z,98859.72
2022-12-20T19:23:54.644Z,98858.59
2022-12-20T19:26:23.041Z,98867.47
2022-12-20T19:28:49.812Z,98861.69
2022-12-20T19:31:22.053Z,98857.97
2022-12-20T19:33:50.688Z,98851.78
2022-12-20T19:36:20.441Z,98856.06
2022-12-20T19:38:50.191Z,98848.28
2022-12-20T19:41:18.043Z,98846.03
2022-12-20T19:43:44.825Z,98842.81
2022-12-20T19:46:11.441Z,98839.22
2022-12-20T19:48:38.056Z,98837.16
2022-12-20T19:51:11.614Z,98838.25
2022-12-20T19:53:40.073Z,98839.44
2022-12-20T19:56:08.645Z,98836.31
2022-12-20T19:58:36.372Z,98827.75
2022-12-20T20:01:05.465Z,98831.19
2022-12-20T20:03:32.606Z,98829.03
2022-12-20T20:05:59.603Z,98831.19
2022-12-20T20:08:26.061Z,98842.81
2022-12-20T20:10:53.921Z,98831.66
2022-12-20T20:13:20.454Z,98831.13
2022-12-20T20:15:54.977Z,98844.53
2022-12-20T20:18:23.832Z,98845.50
2022-12-20T20:20:50.241Z,98840.09
2022-12-20T20:23:16.821Z,98840.84
2022-12-20T20:25:47.084Z,98850.56
2022-12-20T20:28:13.871Z,98847.88
2022-12-20T20:30:45.265Z,98850.56
2022-12-20T20:33:12.364Z,98848.56
2022-12-20T20:35:39.901Z,98849.44
2022-12-20T20:38:07.812Z,98840.84
2022-12-20T20:40:34.256Z,98845.22
2022-12-20T20:43:01.961Z,98849.66
2022-12-20T20:45:29.101Z,98837.63
2022-12-20T20:47:57.380Z,98850.34
2022-12-20T20:50:26.411Z,98844.38
2022-12-20T20:52:52.871Z,98835.94
2022-12-20T20:55:19.391Z,98837.63
2022-12-20T20:57:45.874Z,98842.91
2022-12-20T21:00:12.818Z,98844.19
2022-12-20T21:02:39.562Z,98849.09
2022-12-20T21:05:58.618Z,98832.78
2022-12-20T21:07:53.671Z,98832.94
2022-12-20T21:10:23.663Z,98840.81
2022-12-20T21:12:50.523Z,98835.72
2022-12-20T21:15:23.436Z,98833.78
2022-12-20T21:17:50.592Z,98837.84
2022-12-20T21:20:20.719Z,98837.84
2022-12-20T21:22:50.383Z,98837.16
2022-12-20T21:25:17.219Z,98840.44
2022-12-20T21:27:43.621Z,98829.13
2022-12-20T21:30:10.370Z,98838.28
2022-12-20T21:32:36.842Z,98830.34
2022-12-20T21:35:03.454Z,98827.88
2022-12-20T21:37:30.523Z,98835.38
2022-12-20T21:39:57.012Z,98836.69
2022-12-20T21:42:23.497Z,98835.44
2022-12-20T21:44:49.896Z,98829.75
2022-12-20T21:47:16.352Z,98834.88
2022-12-20T21:49:42.847Z,98832.53
2022-12-20T21:52:09.334Z,98837.47
2022-12-20T21:54:35.842Z,98831.13
2022-12-20T21:57:02.257Z,98834.09
2022-12-20T21:59:28.684Z,98837.16
2022-12-20T22:01:55.226Z,98829.13
2022-12-20T22:04:22.076Z,98831.13
2022-12-20T22:06:48.563Z,98828.84
2022-12-20T22:09:17.054Z,98830.53
2022-12-20T22:11:43.504Z,98837.56
2022-12-20T22:14:12.232Z,98832.19
2022-12-20T22:16:38.614Z,98828.16
2022-12-20T22:19:05.184Z,98841.78
2022-12-20T22:21:33.227Z,98829.09
2022-12-20T22:24:00.839Z,98822.34
2022-12-20T22:26:29.811Z,98821.47
2022-12-20T22:29:03.622Z,98826.25
2022-12-20T22:31:30.874Z,98827.56
2022-12-20T22:33:58.384Z,98824.88
2022-12-20T22:36:26.004Z,98833.91
2022-12-20T22:38:56.797Z,98826.53
2022-12-20T22:41:26.506Z,98824.34
2022-12-20T22:43:53.721Z,98828.53
2022-12-20T22:46:20.636Z,98827.56
2022-12-20T22:48:47.587Z,98819.81
2022-12-20T22:51:19.848Z,98816.44
2022-12-20T22:53:50.235Z,98823.19
2022-12-20T22:56:18.336Z,98814.91
2022-12-20T22:58:44.920Z,98819.13
2022-12-20T23:01:13.531Z,98818.50
2022-12-20T23:03:40.212Z,98813.25
2022-12-20T23:06:08.808Z,98822.84
2022-12-20T23:08:37.274Z,98810.28
2022-12-20T23:11:23.409Z,98818.16
2022-12-20T23:14:08.156Z,98823.53
2022-12-20T23:16:37.195Z,98819.91
2022-12-20T23:19:03.618Z,98821.59
2022-12-20T23:21:48.756Z,98818.84
2022-12-20T23:24:15.807Z,98813.63
2022-12-20T23:26:43.380Z,98814.31
2022-12-20T23:29:11.381Z,98821.63
2022-12-20T23:31:37.997Z,98823.75
2022-12-20T23:34:04.735Z,98816.50
2022-12-20T23:36:33.262Z,98805.22
2022-12-20T23:39:00.590Z,98817.09
2022-12-20T23:41:27.090Z,98817.09
2022-12-20T23:43:53.651Z,98814.13
2022-12-20T23:46:21.721Z,98820.22
2022-12-20T23:48:50.939Z,98833.19
2022-12-20T23:51:18.118Z,98834.00
2022-12-20T23:53:44.833Z,98827.28
2022-12-20T23:56:14.889Z,98825.34
2022-12-20T23:58:42.270Z,98831.81
